createdAt,value
2019-03-23T00:01:08.365Z,10.56
2019-03-23T00:03:40.513Z,10.55
2019-03-23T00:06:12.246Z,10.59
2019-03-23T00:08:44.072Z,10.55
2019-03-23T00:11:16.421Z,10.51
2019-03-23T00:13:48.646Z,10.54
2019-03-23T00:16:20.638Z,10.53
2019-03-23T00:18:52.397Z,10.51
2019-03-23T00:21:24.126Z,10.47
2019-03-23T00:23:55.902Z,10.50
2019-03-23T00:26:28.172Z,10.50
2019-03-23T00:28:59.947Z,10.51
2019-03-23T00:31:34.341Z,10.50
2019-03-23T00:34:06.538Z,10.44
2019-03-23T00:36:41.659Z,10.42
2019-03-23T00:39:11.922Z,10.31
2019-03-23T00:41:43.767Z,10.31
2019-03-23T00:44:15.888Z,10.34
2019-03-23T00:46:47.602Z,10.26
2019-03-23T00:49:19.740Z,10.35
2019-03-23T00:51:52.221Z,10.26
2019-03-23T00:54:23.999Z,10.26
2019-03-23T00:56:55.778Z,10.18
2019-03-23T00:59:27.540Z,10.17
2019-03-23T01:01:59.348Z,10.12
2019-03-23T01:04:31.211Z,9.96
2019-03-23T01:07:03.011Z,9.75
2019-03-23T01:09:34.804Z,9.82
2019-03-23T01:12:11.433Z,9.77
2019-03-23T01:14:43.117Z,9.68
2019-03-23T01:17:14.896Z,9.66
2019-03-23T01:19:46.619Z,9.49
2019-03-23T01:22:18.303Z,9.31
2019-03-23T01:24:51.086Z,9.30
2019-03-23T01:27:22.773Z,9.13
2019-03-23T01:29:54.505Z,9.18
2019-03-23T01:32:26.267Z,9.26
2019-03-23T01:34:58.508Z,9.20
2019-03-23T01:37:30.254Z,9.01
2019-03-23T01:40:02.329Z,8.97
2019-03-23T01:42:36.352Z,8.95
2019-03-23T01:45:08.275Z,8.80
2019-03-23T01:47:40.371Z,8.77
2019-03-23T01:50:12.536Z,8.82
2019-03-23T01:52:44.293Z,8.56
2019-03-23T01:55:16.019Z,8.67
2019-03-23T01:57:48.452Z,8.71
2019-03-23T02:00:20.583Z,8.64
2019-03-23T02:02:52.613Z,8.51
2019-03-23T02:05:24.339Z,8.36
2019-03-23T02:07:56.012Z,8.41
2019-03-23T02:10:28.128Z,8.43
2019-03-23T02:12:59.815Z,8.37
2019-03-23T02:15:32.517Z,8.39
2019-03-23T02:18:04.279Z,8.56
2019-03-23T02:20:36.007Z,8.52
2019-03-23T02:23:08.068Z,8.41
2019-03-23T02:25:39.730Z,8.28
2019-03-23T02:28:11.760Z,8.27
2019-03-23T02:30:43.801Z,8.27
2019-03-23T02:33:15.594Z,8.27
2019-03-23T02:35:48.364Z,8.37
2019-03-23T02:38:21.041Z,8.23
2019-03-23T02:40:52.810Z,8.22
2019-03-23T02:43:25.848Z,8.17
2019-03-23T02:45:57.600Z,8.28
2019-03-23T02:48:29.629Z,8.14
2019-03-23T02:51:01.340Z,8.24
2019-03-23T02:53:33.137Z,8.17
2019-03-23T02:56:05.233Z,8.14
2019-03-23T02:58:37.369Z,8.15
2019-03-23T03:01:09.088Z,8.43
2019-03-23T03:03:41.096Z,8.42
2019-03-23T03:06:13.091Z,8.57
2019-03-23T03:08:44.845Z,8.65
2019-03-23T03:11:16.497Z,8.45
2019-03-23T03:13:48.213Z,8.46
2019-03-23T03:16:20.371Z,8.44
2019-03-23T03:18:52.055Z,8.38
2019-03-23T03:21:23.830Z,8.32
2019-03-23T03:23:55.550Z,8.25
2019-03-23T03:26:27.501Z,8.58
2019-03-23T03:28:59.274Z,8.41
2019-03-23T03:31:31.324Z,8.17
2019-03-23T03:34:03.372Z,8.07
2019-03-23T03:36:35.406Z,7.83
2019-03-23T03:39:08.760Z,7.86
2019-03-23T03:41:40.441Z,8.18
2019-03-23T03:44:12.138Z,7.78
2019-03-23T03:46:44.826Z,7.65
2019-03-23T03:49:16.518Z,7.59
2019-03-23T03:51:48.867Z,7.60
2019-03-23T03:54:20.624Z,7.78
2019-03-23T03:56:52.318Z,7.91
2019-03-23T03:59:25.264Z,7.76
2019-03-23T04:01:56.956Z,7.72
2019-03-23T04:04:28.647Z,7.45
2019-03-23T04:07:00.385Z,7.50
2019-03-23T04:09:32.220Z,7.60
2019-03-23T04:12:03.952Z,7.68
2019-03-23T04:14:35.644Z,7.54
2019-03-23T04:17:07.368Z,7.60
2019-03-23T04:19:39.597Z,7.63
2019-03-23T04:22:11.277Z,7.61
2019-03-23T04:24:42.964Z,7.47
2019-03-23T04:27:14.655Z,7.49
2019-03-23T04:29:47.199Z,7.58
2019-03-23T04:32:18.985Z,7.61
2019-03-23T04:34:50.694Z,7.51
2019-03-23T04:37:22.723Z,7.55
2019-03-23T04:39:54.785Z,7.28
2019-03-23T04:42:26.492Z,7.27
2019-03-23T04:44:58.201Z,7.34
2019-03-23T04:47:30.162Z,7.27
2019-03-23T04:50:01.914Z,7.32
2019-03-23T04:52:33.678Z,7.40
2019-03-23T04:55:06.569Z,7.38
2019-03-23T04:57:38.955Z,7.42
2019-03-23T05:00:12.084Z,7.53
2019-03-23T05:02:43.858Z,7.51
2019-03-23T05:05:15.735Z,7.44
2019-03-23T05:07:47.412Z,7.39
2019-03-23T05:10:19.141Z,7.45
2019-03-23T05:12:50.851Z,7.53
2019-03-23T05:15:23.681Z,7.65
2019-03-23T05:17:55.366Z,7.70
2019-03-23T05:20:33.801Z,7.67
2019-03-23T05:23:05.691Z,7.64
2019-03-23T05:25:37.444Z,7.57
2019-03-23T05:28:09.663Z,7.47
2019-03-23T05:30:41.373Z,7.40
2019-03-23T05:33:13.485Z,7.36
2019-03-23T05:35:45.250Z,7.44
2019-03-23T05:38:16.942Z,7.59
2019-03-23T05:40:48.656Z,7.49
2019-03-23T05:43:20.374Z,7.58
2019-03-23T05:45:52.250Z,7.70
2019-03-23T05:48:23.975Z,7.62
2019-03-23T05:50:55.781Z,7.59
2019-03-23T05:53:28.965Z,7.73
2019-03-23T05:56:00.702Z,7.79
2019-03-23T05:58:32.447Z,7.75
2019-03-23T06:01:04.151Z,7.69
2019-03-23T06:03:35.856Z,7.77
2019-03-23T06:06:07.499Z,7.79
2019-03-23T06:08:40.098Z,7.97
2019-03-23T06:11:11.819Z,8.01
2019-03-23T06:13:43.552Z,7.99
2019-03-23T06:16:15.253Z,7.93
2019-03-23T06:18:48.461Z,7.95
2019-03-23T06:21:20.522Z,8.04
2019-03-23T06:23:52.231Z,8.15
2019-03-23T06:26:23.929Z,8.17
2019-03-23T06:28:56.117Z,8.20
2019-03-23T06:31:27.920Z,8.15
2019-03-23T06:33:59.752Z,8.17
2019-03-23T06:36:31.880Z,8.16
2019-03-23T06:39:05.762Z,8.34
2019-03-23T06:41:37.592Z,8.25
2019-03-23T06:44:09.293Z,8.22
2019-03-23T06:46:41.049Z,8.26
2019-03-23T06:49:12.722Z,8.14
2019-03-23T06:51:44.883Z,8.21
2019-03-23T06:54:17.508Z,8.35
2019-03-23T06:56:49.704Z,8.48
2019-03-23T06:59:21.389Z,8.40
2019-03-23T07:01:53.862Z,8.50
2019-03-23T07:04:26.858Z,8.44
2019-03-23T07:06:59.794Z,8.51
2019-03-23T07:09:31.503Z,8.65
2019-03-23T07:12:03.221Z,8.63
2019-03-23T07:14:34.940Z,8.60
2019-03-23T07:17:06.868Z,8.51
2019-03-23T07:19:38.620Z,8.66
2019-03-23T07:22:10.300Z,8.81
2019-03-23T07:24:42.067Z,8.84
2019-03-23T07:27:13.804Z,8.78
2019-03-23T07:29:45.546Z,8.85
2019-03-23T07:32:17.543Z,8.91
2019-03-23T07:34:49.280Z,8.97
2019-03-23T07:37:21.031Z,8.92
2019-03-23T07:39:53.202Z,8.78
2019-03-23T07:42:25.978Z,8.79
2019-03-23T07:44:58.060Z,8.61
2019-03-23T07:47:30.037Z,8.66
2019-03-23T07:50:01.897Z,8.83
2019-03-23T07:52:33.786Z,8.83
2019-03-23T07:55:12.544Z,8.85
2019-03-23T07:57:44.646Z,8.91
2019-03-23T08:00:19.172Z,8.97
2019-03-23T08:02:51.003Z,8.92
2019-03-23T08:05:23.776Z,8.92
2019-03-23T08:07:55.467Z,8.94
2019-03-23T08:10:33.782Z,9.05
2019-03-23T08:13:05.493Z,9.01
2019-03-23T08:15:37.549Z,8.86
2019-03-23T08:18:09.296Z,9.06
2019-03-23T08:20:40.977Z,9.16
2019-03-23T08:23:12.710Z,9.21
2019-03-23T08:25:44.994Z,9.02
2019-03-23T08:28:16.686Z,9.05
2019-03-23T08:30:48.454Z,9.07
2019-03-23T08:33:20.069Z,9.08
2019-03-23T08:35:51.791Z,9.31
2019-03-23T08:38:23.562Z,9.26
2019-03-23T08:40:55.396Z,9.18
2019-03-23T08:43:27.604Z,9.22
2019-03-23T08:45:59.292Z,9.15
2019-03-23T08:48:31.529Z,9.30
2019-03-23T08:51:03.227Z,9.29
2019-03-23T08:53:36.046Z,9.30
2019-03-23T08:56:07.716Z,9.28
2019-03-23T08:58:37.157Z,9.37
2019-03-23T09:01:10.275Z,9.45
2019-03-23T09:03:52.094Z,9.52
2019-03-23T09:06:18.439Z,9.43
2019-03-23T09:08:50.485Z,9.54
2019-03-23T09:11:22.268Z,9.58
2019-03-23T09:13:54.059Z,9.64
2019-03-23T09:16:25.828Z,9.57
2019-03-23T09:18:57.519Z,9.73
2019-03-23T09:21:29.283Z,9.72
2019-03-23T09:24:01.021Z,9.79
2019-03-23T09:26:32.746Z,9.97
2019-03-23T09:29:04.555Z,10.07
2019-03-23T09:31:36.316Z,10.08
2019-03-23T09:34:07.873Z,10.12
2019-03-23T09:36:41.366Z,10.08
2019-03-23T09:39:13.363Z,10.18
2019-03-23T09:41:45.204Z,10.12
2019-03-23T09:44:17.047Z,10.23
2019-03-23T09:46:48.847Z,10.27
2019-03-23T09:49:22.065Z,10.41
2019-03-23T09:51:54.071Z,10.44
2019-03-23T09:54:27.525Z,10.51
2019-03-23T09:56:59.688Z,10.40
2019-03-23T09:59:31.550Z,10.51
2019-03-23T10:02:05.312Z,10.58
2019-03-23T10:06:31.569Z,10.86
2019-03-23T10:09:04.038Z,10.93
2019-03-23T10:11:35.860Z,11.00
2019-03-23T10:14:07.998Z,10.84
2019-03-23T10:16:39.871Z,10.97
2019-03-23T10:19:11.723Z,10.98
2019-03-23T10:21:43.432Z,10.87
2019-03-23T10:24:15.280Z,11.01
2019-03-23T10:26:47.125Z,10.79
2019-03-23T10:29:18.962Z,10.85
2019-03-23T10:31:50.761Z,10.66
2019-03-23T10:34:22.949Z,10.87
2019-03-23T10:36:57.000Z,11.06
2019-03-23T10:39:28.776Z,11.01
2019-03-23T10:42:00.565Z,10.87
2019-03-23T10:44:32.678Z,11.04
2019-03-23T10:47:04.944Z,11.19
2019-03-23T10:49:36.793Z,11.40
2019-03-23T10:52:08.515Z,11.10
2019-03-23T10:54:40.274Z,11.07
2019-03-23T10:57:12.134Z,11.28
2019-03-23T10:59:45.635Z,11.42
2019-03-23T11:02:17.429Z,11.51
2019-03-23T11:04:49.822Z,11.50
2019-03-23T11:07:21.745Z,11.10
2019-03-23T11:09:53.593Z,11.09
2019-03-23T11:12:25.409Z,11.30
2019-03-23T11:14:57.660Z,11.68
2019-03-23T11:17:29.416Z,11.67
2019-03-23T11:20:01.573Z,11.70
2019-03-23T11:22:33.427Z,11.65
2019-03-23T11:25:05.978Z,11.75
2019-03-23T11:27:39.057Z,11.84
2019-03-23T11:30:11.062Z,11.86
2019-03-23T11:32:44.475Z,11.89
2019-03-23T11:35:16.386Z,12.03
2019-03-23T11:37:48.401Z,11.91
2019-03-23T11:40:20.300Z,12.06
2019-03-23T11:42:52.623Z,11.89
2019-03-23T11:45:24.413Z,11.93
2019-03-23T11:47:56.229Z,12.13
2019-03-23T11:50:28.116Z,12.08
2019-03-23T11:52:59.961Z,12.09
2019-03-23T11:55:31.750Z,12.04
2019-03-23T11:58:04.777Z,12.11
2019-03-23T12:00:36.933Z,12.31
2019-03-23T12:03:08.827Z,12.26
2019-03-23T12:05:40.512Z,12.16
2019-03-23T12:08:12.434Z,12.14
2019-03-23T12:10:44.305Z,12.03
2019-03-23T12:13:16.250Z,12.19
2019-03-23T12:15:48.457Z,12.02
2019-03-23T12:18:20.599Z,12.35
2019-03-23T12:20:52.492Z,12.55
2019-03-23T12:23:24.175Z,12.38
2019-03-23T12:25:55.990Z,12.23
2019-03-23T12:28:27.781Z,12.29
2019-03-23T12:30:59.476Z,12.28
2019-03-23T12:33:31.186Z,12.50
2019-03-23T12:36:04.067Z,12.34
2019-03-23T12:38:37.420Z,12.41
2019-03-23T12:41:18.462Z,12.25
2019-03-23T12:43:42.748Z,12.31
2019-03-23T12:46:14.540Z,12.43
2019-03-23T12:48:46.275Z,12.55
2019-03-23T12:51:18.107Z,12.70
2019-03-23T12:53:50.305Z,12.59
2019-03-23T12:56:22.102Z,12.47
2019-03-23T12:58:54.239Z,12.30
2019-03-23T13:01:26.229Z,12.72
2019-03-23T13:03:57.988Z,12.83
2019-03-23T13:06:29.784Z,12.90
2019-03-23T13:09:01.538Z,12.75
2019-03-23T13:11:36.039Z,12.71
2019-03-23T13:14:08.616Z,12.93
2019-03-23T13:16:40.471Z,12.20
2019-03-23T13:19:12.566Z,12.55
2019-03-23T13:21:44.595Z,12.22
2019-03-23T13:24:16.420Z,12.37
2019-03-23T13:26:49.228Z,12.46
2019-03-23T13:29:20.986Z,12.24
2019-03-23T13:31:52.745Z,12.41
2019-03-23T13:34:25.488Z,12.41
2019-03-23T13:36:57.646Z,12.49
2019-03-23T13:39:29.734Z,12.75
2019-03-23T13:42:01.441Z,12.58
2019-03-23T13:44:33.200Z,12.83
2019-03-23T13:47:05.096Z,12.79
2019-03-23T13:49:38.145Z,12.93
2019-03-23T13:52:09.973Z,13.02
2019-03-23T13:54:42.432Z,12.59
2019-03-23T13:57:14.145Z,13.02
2019-03-23T13:59:45.983Z,12.84
2019-03-23T14:02:17.782Z,12.82
2019-03-23T14:04:50.373Z,12.74
2019-03-23T14:07:22.511Z,12.78
2019-03-23T14:09:54.218Z,12.76
2019-03-23T14:12:25.994Z,12.78
2019-03-23T14:14:58.101Z,12.73
2019-03-23T14:17:29.890Z,12.68
2019-03-23T14:20:01.879Z,12.86
2019-03-23T14:22:33.655Z,12.81
2019-03-23T14:25:05.891Z,12.90
2019-03-23T14:27:37.849Z,12.90
2019-03-23T14:30:10.386Z,13.13
2019-03-23T14:32:42.226Z,12.94
2019-03-23T14:35:14.112Z,12.55
2019-03-23T14:37:45.835Z,12.56
2019-03-23T14:40:17.664Z,12.55
2019-03-23T14:42:49.522Z,12.62
2019-03-23T14:45:21.291Z,12.65
2019-03-23T14:47:53.410Z,12.61
2019-03-23T14:50:25.102Z,12.49
2019-03-23T14:52:57.319Z,12.58
2019-03-23T14:55:29.141Z,12.60
2019-03-23T14:58:00.931Z,12.55
2019-03-23T15:00:35.942Z,12.33
2019-03-23T15:03:07.649Z,12.44
2019-03-23T15:05:50.841Z,12.53
2019-03-23T15:08:22.658Z,12.40
2019-03-23T15:10:54.753Z,12.26
2019-03-23T15:13:26.493Z,12.40
2019-03-23T15:15:58.592Z,12.03
2019-03-23T15:18:30.358Z,12.07
2019-03-23T15:21:03.462Z,12.16
2019-03-23T15:23:35.198Z,11.94
2019-03-23T15:26:06.922Z,11.85
2019-03-23T15:28:39.146Z,11.81
2019-03-23T15:31:11.197Z,11.75
2019-03-23T15:33:42.898Z,11.81
2019-03-23T15:36:17.168Z,11.66
2019-03-23T15:38:48.560Z,11.66
2019-03-23T15:41:20.774Z,11.64
2019-03-23T15:43:52.643Z,11.63
2019-03-23T15:46:27.249Z,11.59
2019-03-23T15:48:59.035Z,11.58
2019-03-23T15:51:31.072Z,11.53
2019-03-23T15:54:02.833Z,11.66
2019-03-23T15:56:35.941Z,11.33
2019-03-23T15:59:07.900Z,11.16
2019-03-23T16:01:39.664Z,10.97
2019-03-23T16:04:11.431Z,10.85
2019-03-23T16:06:43.195Z,10.94
2019-03-23T16:09:14.986Z,10.90
2019-03-23T16:11:46.766Z,10.91
2019-03-23T16:14:18.831Z,10.83
2019-03-23T16:16:51.003Z,10.92
2019-03-23T16:19:22.738Z,10.73
2019-03-23T16:21:54.654Z,10.81
2019-03-23T16:24:26.436Z,10.80
2019-03-23T16:26:58.300Z,10.71
2019-03-23T16:29:30.102Z,10.80
2019-03-23T16:32:01.805Z,10.84
2019-03-23T16:34:33.566Z,10.71
2019-03-23T16:37:05.320Z,10.80
2019-03-23T16:39:37.015Z,10.71
2019-03-23T16:42:09.082Z,10.53
2019-03-23T16:44:41.108Z,10.60
2019-03-23T16:47:12.925Z,10.59
2019-03-23T16:49:44.761Z,10.65
2019-03-23T16:52:16.519Z,10.61
2019-03-23T16:54:48.291Z,10.57
2019-03-23T16:57:20.091Z,10.53
2019-03-23T16:59:52.226Z,10.43
2019-03-23T17:02:23.972Z,10.16
2019-03-23T17:04:55.771Z,10.09
2019-03-23T17:07:27.881Z,10.05
2019-03-23T17:09:59.971Z,9.98
2019-03-23T17:12:33.338Z,10.17
2019-03-23T17:15:06.177Z,9.93
2019-03-23T17:17:37.940Z,9.91
2019-03-23T17:20:09.931Z,10.02
2019-03-23T17:22:41.699Z,9.98
2019-03-23T17:25:13.810Z,9.87
2019-03-23T17:27:45.819Z,9.84
2019-03-23T17:30:17.758Z,9.69
2019-03-23T17:32:49.948Z,9.63
2019-03-23T17:35:21.690Z,9.69
2019-03-23T17:37:53.439Z,9.69
2019-03-23T17:40:25.156Z,9.54
2019-03-23T17:43:05.629Z,9.69
2019-03-23T17:45:30.248Z,9.43
2019-03-23T17:48:02.345Z,9.46
2019-03-23T17:50:34.027Z,9.47
2019-03-23T17:53:05.942Z,9.46
2019-03-23T17:55:37.674Z,9.59
2019-03-23T17:58:09.466Z,9.62
2019-03-23T18:00:41.233Z,9.59
2019-03-23T18:03:13.022Z,9.53
2019-03-23T18:05:44.715Z,9.39
2019-03-23T18:08:16.919Z,9.08
2019-03-23T18:10:48.678Z,9.21
2019-03-23T18:13:20.459Z,9.26
2019-03-23T18:15:52.623Z,9.33
2019-03-23T18:18:24.384Z,9.06
2019-03-23T18:20:56.184Z,9.08
2019-03-23T18:23:27.888Z,8.96
2019-03-23T18:25:59.659Z,8.99
2019-03-23T18:28:31.426Z,8.94
2019-03-23T18:31:03.196Z,8.87
2019-03-23T18:33:35.416Z,8.96
2019-03-23T18:36:07.175Z,8.97
2019-03-23T18:38:39.375Z,8.86
2019-03-23T18:41:11.122Z,8.76
2019-03-23T18:43:42.820Z,8.74
2019-03-23T18:46:14.812Z,8.85
2019-03-23T18:48:48.267Z,8.84
2019-03-23T18:51:20.015Z,8.77
2019-03-23T18:53:51.730Z,8.81
2019-03-23T18:56:23.501Z,8.75
2019-03-23T18:58:55.249Z,8.51
2019-03-23T19:01:27.374Z,8.39
2019-03-23T19:03:59.110Z,8.39
2019-03-23T19:06:30.828Z,8.30
2019-03-23T19:09:02.551Z,8.30
2019-03-23T19:11:35.700Z,8.29
2019-03-23T19:14:07.492Z,8.34
2019-03-23T19:16:41.189Z,8.36
2019-03-23T19:19:13.608Z,8.34
2019-03-23T19:21:45.370Z,8.36
2019-03-23T19:24:17.145Z,8.41
2019-03-23T19:26:48.911Z,8.44
2019-03-23T19:29:20.697Z,8.11
2019-03-23T19:31:52.404Z,8.07
2019-03-23T19:34:24.144Z,8.08
2019-03-23T19:36:56.328Z,8.26
2019-03-23T19:39:28.122Z,8.11
2019-03-23T19:41:59.852Z,8.10
2019-03-23T19:44:32.001Z,8.18
2019-03-23T19:47:03.772Z,8.04
2019-03-23T19:49:35.531Z,7.86
2019-03-23T19:52:07.247Z,7.63
2019-03-23T19:54:39.207Z,7.53
2019-03-23T19:57:10.935Z,7.48
2019-03-23T19:59:42.797Z,7.42
2019-03-23T20:02:14.633Z,7.50
2019-03-23T20:04:46.408Z,7.52
2019-03-23T20:07:18.155Z,7.46
2019-03-23T20:10:05.514Z,7.55
2019-03-23T20:12:37.299Z,7.49
2019-03-23T20:15:10.785Z,7.46
2019-03-23T20:17:42.590Z,7.42
2019-03-23T20:20:15.087Z,7.55
2019-03-23T20:22:50.066Z,7.53
2019-03-23T20:25:22.149Z,7.48
2019-03-23T20:27:53.954Z,7.46
2019-03-23T20:30:25.908Z,7.51
2019-03-23T20:32:58.186Z,7.49
2019-03-23T20:35:29.866Z,7.35
2019-03-23T20:38:02.491Z,7.34
2019-03-23T20:40:34.305Z,7.25
2019-03-23T20:43:07.705Z,7.15
2019-03-23T20:45:39.523Z,7.01
2019-03-23T20:48:11.469Z,7.02
2019-03-23T20:50:45.095Z,7.22
2019-03-23T20:53:18.883Z,7.26
2019-03-23T20:55:50.657Z,7.15
2019-03-23T20:58:22.763Z,7.18
2019-03-23T21:00:54.467Z,7.29
2019-03-23T21:03:26.263Z,7.46
2019-03-23T21:05:58.224Z,7.34
2019-03-23T21:08:29.943Z,7.07
2019-03-23T21:11:02.878Z,6.88
2019-03-23T21:13:34.632Z,6.76
2019-03-23T21:16:06.671Z,6.76
2019-03-23T21:18:38.912Z,6.76
2019-03-23T21:21:10.614Z,6.87
2019-03-23T21:23:42.335Z,6.93
2019-03-23T21:26:14.040Z,6.85
2019-03-23T21:28:45.810Z,6.83
2019-03-23T21:31:17.903Z,6.73
2019-03-23T21:33:49.652Z,6.67
2019-03-23T21:36:21.368Z,6.73
2019-03-23T21:38:53.119Z,6.87
2019-03-23T21:41:24.936Z,6.77
2019-03-23T21:43:56.684Z,6.72
2019-03-23T21:46:28.441Z,6.54
2019-03-23T21:49:00.122Z,6.54
2019-03-23T21:51:31.926Z,6.62
2019-03-23T21:54:03.740Z,6.71
2019-03-23T21:56:35.486Z,6.73
2019-03-23T21:59:08.154Z,6.71
2019-03-23T22:01:39.866Z,6.50
2019-03-23T22:04:11.671Z,6.48
2019-03-23T22:06:44.661Z,6.47
2019-03-23T22:09:17.136Z,6.43
2019-03-23T22:11:48.821Z,6.53
2019-03-23T22:14:20.607Z,6.53
2019-03-23T22:16:52.616Z,6.55
2019-03-23T22:19:24.405Z,6.76
2019-03-23T22:21:56.145Z,6.88
2019-03-23T22:24:27.890Z,6.84
2019-03-23T22:26:59.587Z,6.59
2019-03-23T22:29:31.375Z,6.71
2019-03-23T22:32:03.072Z,6.81
2019-03-23T22:34:34.781Z,6.79
2019-03-23T22:37:07.017Z,6.62
2019-03-23T22:39:39.164Z,6.86
2019-03-23T22:42:11.817Z,6.61
2019-03-23T22:44:52.000Z,6.59
2019-03-23T22:47:16.970Z,6.55
2019-03-23T22:49:49.788Z,6.50
2019-03-23T22:52:22.515Z,6.53
2019-03-23T22:54:56.709Z,6.68
2019-03-23T22:57:29.242Z,6.57
2019-03-23T23:00:01.255Z,6.66
2019-03-23T23:02:34.392Z,6.70
2019-03-23T23:05:07.096Z,6.56
2019-03-23T23:07:40.059Z,6.19
2019-03-23T23:10:12.053Z,6.14
2019-03-23T23:12:44.318Z,6.15
2019-03-23T23:15:24.738Z,6.38
2019-03-23T23:17:58.752Z,6.22
2019-03-23T23:20:30.546Z,6.34
2019-03-23T23:23:03.742Z,6.16
2019-03-23T23:25:37.057Z,6.21
2019-03-23T23:28:09.146Z,6.48
2019-03-23T23:30:41.252Z,6.41
2019-03-23T23:33:13.059Z,6.23
2019-03-23T23:35:45.821Z,6.48
2019-03-23T23:38:17.613Z,6.46
2019-03-23T23:40:49.506Z,6.54
2019-03-23T23:43:21.888Z,6.62
2019-03-23T23:48:23.316Z,6.63
2019-03-23T23:50:55.270Z,6.48
2019-03-23T23:53:27.101Z,6.49
2019-03-23T23:55:59.306Z,6.49
2019-03-23T23:58:31.751Z,6.42
